createdAt,value
2018-05-25T00:00:00.000Z,98878
2018-05-25T00:05:00.000Z,98877
2018-05-25T00:10:00.000Z,98872
2018-05-25T00:15:00.000Z,98874
2018-05-25T00:20:00.000Z,98863
2018-05-25T00:25:00.000Z,98863
2018-05-25T00:30:00.000Z,98863
2018-05-25T00:35:00.000Z,98862
2018-05-25T00:40:00.000Z,98856
2018-05-25T00:45:00.000Z,98852
2018-05-25T00:50:00.000Z,98858
2018-05-25T00:55:00.000Z,98850
2018-05-25T01:00:00.000Z,98861
2018-05-25T01:05:00.000Z,98858
2018-05-25T01:10:00.000Z,98862
2018-05-25T01:15:00.000Z,98855
2018-05-25T01:20:00.000Z,98855
2018-05-25T01:25:00.000Z,98858
2018-05-25T01:30:00.000Z,98846
2018-05-25T01:35:00.000Z,98858
2018-05-25T01:40:00.000Z,98854
2018-05-25T01:45:00.000Z,98852
2018-05-25T01:50:00.000Z,98849
2018-05-25T01:55:00.000Z,98849
2018-05-25T02:00:00.000Z,98854
2018-05-25T02:05:00.000Z,98854
2018-05-25T02:10:00.000Z,98847
2018-05-25T02:15:00.000Z,98849
2018-05-25T02:20:00.000Z,98839
2018-05-25T02:25:00.000Z,98851
2018-05-25T02:30:00.000Z,98854
2018-05-25T02:35:00.000Z,98854
2018-05-25T02:40:00.000Z,98863
2018-05-25T02:45:00.000Z,98858
2018-05-25T02:50:00.000Z,98854
2018-05-25T02:55:00.000Z,98862
2018-05-25T03:00:00.000Z,98862
2018-05-25T03:05:00.000Z,98868
2018-05-25T03:10:00.000Z,98869
2018-05-25T03:15:00.000Z,98860
2018-05-25T03:20:00.000Z,98862
2018-05-25T03:25:00.000Z,98872
2018-05-25T03:30:00.000Z,98870
2018-05-25T03:35:00.000Z,98868
2018-05-25T03:40:00.000Z,98871
2018-05-25T03:45:00.000Z,98863
2018-05-25T03:50:00.000Z,98869
2018-05-25T03:55:00.000Z,98866
2018-05-25T04:00:00.000Z,98858
2018-05-25T04:05:00.000Z,98866
2018-05-25T04:10:00.000Z,98864
2018-05-25T04:16:00.000Z,98869
2018-05-25T04:21:00.000Z,98883
2018-05-25T04:26:00.000Z,98868
2018-05-25T04:31:00.000Z,98875
2018-05-25T04:36:00.000Z,98880
2018-05-25T04:41:00.000Z,98879
2018-05-25T04:46:00.000Z,98882
2018-05-25T04:51:00.000Z,98890
2018-05-25T04:56:00.000Z,98889
2018-05-25T05:01:00.000Z,98894
2018-05-25T05:06:00.000Z,98895
2018-05-25T05:11:00.000Z,98913
2018-05-25T05:16:00.000Z,98912
2018-05-25T05:21:00.000Z,98926
2018-05-25T05:26:00.000Z,98927
2018-05-25T05:31:00.000Z,98936
2018-05-25T05:36:00.000Z,98942
2018-05-25T05:41:00.000Z,98956
2018-05-25T05:46:00.000Z,98951
2018-05-25T05:51:00.000Z,98962
2018-05-25T05:56:00.000Z,98972
2018-05-25T06:01:00.000Z,98965
2018-05-25T06:06:00.000Z,98969
2018-05-25T06:11:00.000Z,98977
2018-05-25T06:16:00.000Z,98980
2018-05-25T06:21:00.000Z,98987
2018-05-25T06:26:00.000Z,98988
2018-05-25T06:31:00.000Z,98999
2018-05-25T06:36:00.000Z,99004
2018-05-25T06:41:00.000Z,99009
2018-05-25T06:46:00.000Z,99005
2018-05-25T06:51:00.000Z,99011
2018-05-25T06:56:00.000Z,99012
2018-05-25T07:01:00.000Z,99012
2018-05-25T07:06:00.000Z,99022
2018-05-25T07:11:00.000Z,99026
2018-05-25T07:16:00.000Z,99029
2018-05-25T07:21:00.000Z,99030
2018-05-25T07:26:00.000Z,99034
2018-05-25T07:31:00.000Z,99038
2018-05-25T07:36:00.000Z,99037
2018-05-25T07:41:00.000Z,99045
2018-05-25T07:46:00.000Z,99036
2018-05-25T07:51:00.000Z,99035
2018-05-25T07:56:00.000Z,99035
2018-05-25T08:01:00.000Z,99020
2018-05-25T08:06:00.000Z,99029
2018-05-25T08:11:00.000Z,99031
2018-05-25T08:16:00.000Z,99036
2018-05-25T08:21:00.000Z,99022
2018-05-25T08:26:00.000Z,99030
2018-05-25T08:31:00.000Z,99030
2018-05-25T08:36:00.000Z,99035
2018-05-25T08:41:00.000Z,99029
2018-05-25T08:46:00.000Z,99027
2018-05-25T08:51:00.000Z,99007
2018-05-25T08:56:00.000Z,99025
2018-05-25T09:01:00.000Z,99017
2018-05-25T09:06:00.000Z,99012
2018-05-25T09:11:00.000Z,99023
2018-05-25T09:16:00.000Z,99020
2018-05-25T09:21:00.000Z,99015
2018-05-25T09:26:00.000Z,99020
2018-05-25T09:31:00.000Z,99023
2018-05-25T09:36:00.000Z,99031
2018-05-25T09:41:00.000Z,99023
2018-05-25T09:46:00.000Z,99037
2018-05-25T09:51:00.000Z,99034
2018-05-25T09:56:00.000Z,99040
2018-05-25T10:01:00.000Z,99034
2018-05-25T10:06:00.000Z,99038
2018-05-25T10:11:00.000Z,99028
2018-05-25T10:17:00.000Z,99032
2018-05-25T10:22:00.000Z,99029
2018-05-25T10:27:00.000Z,99032
2018-05-25T10:32:00.000Z,99032
2018-05-25T10:37:00.000Z,99038
2018-05-25T10:42:00.000Z,99032
2018-05-25T10:47:00.000Z,99042
2018-05-25T10:52:00.000Z,99029
2018-05-25T10:57:00.000Z,99023
2018-05-25T11:02:00.000Z,99023
2018-05-25T11:07:00.000Z,99020
2018-05-25T11:12:00.000Z,99014
2018-05-25T11:17:00.000Z,99015
2018-05-25T11:22:00.000Z,99013
2018-05-25T11:27:00.000Z,99000
2018-05-25T11:32:00.000Z,99003
2018-05-25T11:37:00.000Z,98995
2018-05-25T11:42:00.000Z,98995
2018-05-25T11:47:00.000Z,98989
2018-05-25T11:52:00.000Z,98982
2018-05-25T11:57:00.000Z,98989
2018-05-25T12:02:00.000Z,98988
2018-05-25T12:07:00.000Z,98989
2018-05-25T12:12:00.000Z,98991
2018-05-25T12:17:00.000Z,98997
2018-05-25T12:22:00.000Z,98998
2018-05-25T12:27:00.000Z,98994
2018-05-25T12:32:00.000Z,98991
2018-05-25T12:37:00.000Z,98993
2018-05-25T12:42:00.000Z,98985
2018-05-25T12:47:00.000Z,98984
2018-05-25T12:52:00.000Z,98974
2018-05-25T12:57:00.000Z,98969
2018-05-25T13:02:00.000Z,98979
2018-05-25T13:07:00.000Z,98980
2018-05-25T13:12:00.000Z,98981
2018-05-25T13:17:00.000Z,98985
2018-05-25T13:22:00.000Z,98981
2018-05-25T13:27:00.000Z,98983
2018-05-25T13:32:00.000Z,98987
2018-05-25T13:37:00.000Z,98991
2018-05-25T13:42:00.000Z,98997
2018-05-25T13:47:00.000Z,98987
2018-05-25T13:52:00.000Z,98991
2018-05-25T13:57:00.000Z,98985
2018-05-25T14:02:00.000Z,98985
2018-05-25T14:07:00.000Z,98982
2018-05-25T14:12:00.000Z,98989
2018-05-25T14:17:00.000Z,98991
2018-05-25T14:22:00.000Z,98984
2018-05-25T14:27:00.000Z,98986
2018-05-25T14:32:00.000Z,98986
2018-05-25T14:37:00.000Z,98989
2018-05-25T14:42:00.000Z,98986
2018-05-25T14:47:00.000Z,98986
2018-05-25T14:52:00.000Z,98996
2018-05-25T14:57:00.000Z,98986
2018-05-25T15:02:00.000Z,98993
2018-05-25T15:07:00.000Z,98983
2018-05-25T15:12:00.000Z,98984
2018-05-25T15:17:00.000Z,98982
2018-05-25T15:22:00.000Z,98988
2018-05-25T15:27:00.000Z,98980
2018-05-25T15:32:00.000Z,98982
2018-05-25T15:37:00.000Z,98981
2018-05-25T15:42:00.000Z,98975
2018-05-25T15:47:00.000Z,98983
2018-05-25T15:52:00.000Z,98989
2018-05-25T15:57:00.000Z,98987
2018-05-25T16:03:00.000Z,98987
2018-05-25T16:08:00.000Z,98987
2018-05-25T16:13:00.000Z,99000
2018-05-25T16:18:00.000Z,99003
2018-05-25T16:23:00.000Z,99000
2018-05-25T16:28:00.000Z,99015
2018-05-25T16:33:00.000Z,99017
2018-05-25T16:38:00.000Z,99022
2018-05-25T16:43:00.000Z,99016
2018-05-25T16:48:00.000Z,99015
2018-05-25T16:53:00.000Z,99006
2018-05-25T16:58:00.000Z,99014
2018-05-25T17:03:00.000Z,99019
2018-05-25T17:08:00.000Z,99010
2018-05-25T17:13:00.000Z,99016
2018-05-25T17:18:00.000Z,99014
2018-05-25T17:23:00.000Z,99015
2018-05-25T17:28:00.000Z,99016
2018-05-25T17:33:00.000Z,99020
2018-05-25T17:38:00.000Z,99022
2018-05-25T17:43:00.000Z,99022
2018-05-25T17:48:00.000Z,99031
2018-05-25T17:53:00.000Z,99022
2018-05-25T17:58:00.000Z,99037
2018-05-25T18:03:00.000Z,99039
2018-05-25T18:08:00.000Z,99038
2018-05-25T18:13:00.000Z,99041
2018-05-25T18:18:00.000Z,99042
2018-05-25T18:23:00.000Z,99041
2018-05-25T18:28:00.000Z,99038
2018-05-25T18:33:00.000Z,99044
2018-05-25T18:38:00.000Z,99049
2018-05-25T18:43:00.000Z,99051
2018-05-25T18:48:00.000Z,99056
2018-05-25T18:53:00.000Z,99068
2018-05-25T18:58:00.000Z,99065
2018-05-25T19:03:00.000Z,99078
2018-05-25T19:08:00.000Z,99080
2018-05-25T19:13:00.000Z,99095
2018-05-25T19:18:00.000Z,99083
2018-05-25T19:23:00.000Z,99083
2018-05-25T19:28:00.000Z,99080
2018-05-25T19:33:00.000Z,99084
2018-05-25T19:38:00.000Z,99076
2018-05-25T19:43:00.000Z,99085
2018-05-25T19:48:00.000Z,99092
2018-05-25T19:53:00.000Z,99094
2018-05-25T19:58:00.000Z,99090
2018-05-25T20:03:00.000Z,99092
2018-05-25T20:08:00.000Z,99100
2018-05-25T20:13:00.000Z,99109
2018-05-25T20:18:00.000Z,99124
2018-05-25T20:23:00.000Z,99121
2018-05-25T20:28:00.000Z,99111
2018-05-25T20:33:00.000Z,99118
2018-05-25T20:38:00.000Z,99120
2018-05-25T20:43:00.000Z,99123
2018-05-25T20:48:00.000Z,99113
2018-05-25T20:53:00.000Z,99123
2018-05-25T20:58:00.000Z,99122
2018-05-25T21:03:00.000Z,99127
2018-05-25T21:08:00.000Z,99115
2018-05-25T21:13:00.000Z,99119
2018-05-25T21:18:00.000Z,99113
2018-05-25T21:23:00.000Z,99118
2018-05-25T21:28:00.000Z,99132
2018-05-25T21:33:00.000Z,99129
2018-05-25T21:38:00.000Z,99137
2018-05-25T21:43:00.000Z,99137
2018-05-25T21:48:00.000Z,99132
2018-05-25T21:53:00.000Z,99137
2018-05-25T21:58:00.000Z,99133
2018-05-25T22:03:00.000Z,99141
2018-05-25T22:08:00.000Z,99133
2018-05-25T22:14:00.000Z,99144
2018-05-25T22:19:00.000Z,99145
2018-05-25T22:24:00.000Z,99149
2018-05-25T22:29:00.000Z,99152
2018-05-25T22:34:00.000Z,99153
2018-05-25T22:39:00.000Z,99157
2018-05-25T22:44:00.000Z,99153
2018-05-25T22:49:00.000Z,99159
2018-05-25T22:54:00.000Z,99156
2018-05-25T22:59:00.000Z,99145
2018-05-25T23:04:00.000Z,99150
2018-05-25T23:09:00.000Z,99153
2018-05-25T23:14:00.000Z,99155
2018-05-25T23:19:00.000Z,99148
2018-05-25T23:24:00.000Z,99154
2018-05-25T23:29:00.000Z,99163
2018-05-25T23:34:00.000Z,99155
2018-05-25T23:39:00.000Z,99157
2018-05-25T23:44:00.000Z,99165
2018-05-25T23:49:00.000Z,99176
2018-05-25T23:54:00.000Z,99161
2018-05-25T23:59:00.000Z,99163
